Time;durP1;ratioP1;P1;durP2;ratioP2;P2;SDS_P1;SDS_P2;PMS_P1;PMS_P2;Temp;Humidity;BMP_temperature;BMP_pressure;BME280_temperature;BME280_humidity;BME280_pressure;Samples;Min_cycle;Max_cycle;Signal;HPM_P1;HPM_P2
2022/01/13 00:00:16;;;;;;;2.10;1.10;;;7.70;79.60;;;;;;4889861;29;20051;-74
2022/01/13 00:02:45;;;;;;;2.22;1.30;;;7.80;79.40;;;;;;4917316;29;20453;-74
2022/01/13 00:05:14;;;;;;;3.10;1.42;;;7.80;79.50;;;;;;4900740;29;20044;-73
2022/01/13 00:07:43;;;;;;;2.10;1.27;;;7.80;79.70;;;;;;4899632;29;20058;-74
2022/01/13 00:10:12;;;;;;;2.65;1.50;;;7.80;79.50;;;;;;4918610;29;20154;-73
2022/01/13 00:12:43;;;;;;;2.20;1.10;;;7.80;79.60;;;;;;4916077;29;20059;-74
2022/01/13 00:25:57;;;;;;;2.90;1.63;;;7.90;78.50;;;;;;4916768;29;20498;-73
2022/01/13 00:28:25;;;;;;;2.35;1.38;;;7.90;78.30;;;;;;4901341;29;20044;-74
2022/01/13 00:30:56;;;;;;;2.55;1.13;;;7.90;78.20;;;;;;4902930;29;20075;-74
2022/01/13 00:33:25;;;;;;;3.95;1.48;;;7.90;77.90;;;;;;4896472;29;20094;-75
2022/01/13 00:35:55;;;;;;;2.42;1.10;;;8.00;77.50;;;;;;4898323;29;20036;-75
2022/01/13 00:38:25;;;;;;;2.78;1.30;;;8.00;77.60;;;;;;4914715;29;20044;-74
2022/01/13 00:40:54;;;;;;;3.22;1.27;;;8.00;77.60;;;;;;4895936;29;20047;-73
2022/01/13 00:43:22;;;;;;;2.03;1.15;;;8.00;77.60;;;;;;4915698;29;20047;-73
2022/01/13 00:45:51;;;;;;;3.38;1.20;;;8.00;77.60;;;;;;4887104;29;20131;-74
2022/01/13 00:48:19;;;;;;;3.88;1.42;;;8.00;77.70;;;;;;4921820;29;20055;-74
2022/01/13 00:50:48;;;;;;;3.05;1.45;;;7.90;77.90;;;;;;4903642;29;20043;-74
2022/01/13 00:53:16;;;;;;;2.03;1.02;;;7.90;78.50;;;;;;4906701;29;20039;-74
2022/01/13 00:55:49;;;;;;;2.72;1.08;;;7.90;78.00;;;;;;4921810;29;20071;-74
2022/01/13 00:58:18;;;;;;;2.50;1.35;;;8.00;77.70;;;;;;4920407;29;20058;-73
2022/01/13 01:00:46;;;;;;;2.17;1.00;;;8.00;77.80;;;;;;4905520;29;20047;-74
2022/01/13 01:03:15;;;;;;;2.03;1.10;;;8.00;77.60;;;;;;4897793;29;20442;-73
2022/01/13 01:05:43;;;;;;;1.85;1.00;;;8.00;78.10;;;;;;4899380;29;20136;-74
2022/01/13 01:08:12;;;;;;;1.92;1.20;;;8.00;78.30;;;;;;4917925;29;20402;-74
2022/01/13 01:10:48;;;;;;;1.58;1.00;;;8.00;78.40;;;;;;4905459;29;20048;-74
2022/01/13 01:13:21;;;;;;;1.90;1.33;;;7.90;78.60;;;;;;4918108;29;20494;-74
2022/01/13 01:15:54;;;;;;;2.25;1.00;;;7.90;78.60;;;;;;4917317;29;20044;-74
2022/01/13 01:24:10;;;;;;;2.00;1.00;;;7.90;79.10;;;;;;4906909;29;20398;-73
2022/01/13 01:26:48;;;;;;;2.03;1.30;;;7.90;79.40;;;;;;4919705;29;20047;-73
2022/01/13 01:29:24;;;;;;;2.13;1.13;;;7.80;79.80;;;;;;4911082;29;20521;-72
2022/01/13 01:31:56;;;;;;;2.03;1.15;;;7.80;80.20;;;;;;4930064;29;20124;-73
2022/01/13 01:36:58;;;;;;;1.83;0.93;;;7.90;80.20;;;;;;4914457;29;20071;-73
2022/01/13 01:39:26;;;;;;;2.53;1.00;;;7.90;80.40;;;;;;4902119;29;20044;-72
2022/01/13 01:41:57;;;;;;;2.50;1.35;;;7.90;80.40;;;;;;4899490;29;20058;-74
2022/01/13 01:44:35;;;;;;;2.72;1.05;;;7.90;80.70;;;;;;4925257;29;20368;-74
2022/01/13 01:47:04;;;;;;;3.05;1.20;;;8.00;80.80;;;;;;4915726;29;20418;-74
2022/01/13 01:49:38;;;;;;;1.80;0.95;;;8.00;81.20;;;;;;4920097;29;20122;-74
2022/01/13 01:52:08;;;;;;;2.88;1.27;;;8.00;81.30;;;;;;4921453;29;20134;-75
2022/01/13 01:54:37;;;;;;;2.33;0.90;;;8.00;81.50;;;;;;4917791;29;20048;-74
2022/01/13 01:57:07;;;;;;;2.28;1.05;;;7.90;81.70;;;;;;4920705;29;20040;-74
2022/01/13 01:59:39;;;;;;;2.28;0.95;;;8.00;81.80;;;;;;4902032;29;20146;-74
2022/01/13 02:02:08;;;;;;;4.10;1.05;;;8.00;81.70;;;;;;4901589;29;20052;-74
2022/01/13 02:04:36;;;;;;;1.83;0.90;;;7.90;82.10;;;;;;4914547;29;20459;-74
2022/01/13 02:07:07;;;;;;;2.38;1.05;;;7.90;82.20;;;;;;4903845;29;20040;-74
2022/01/13 02:09:37;;;;;;;2.53;0.93;;;7.90;82.50;;;;;;4914879;29;20620;-74
2022/01/13 02:12:12;;;;;;;1.88;1.00;;;7.90;82.40;;;;;;4920533;29;20297;-74
2022/01/13 02:14:58;;;;;;;2.65;1.10;;;7.90;82.80;;;;;;4912107;29;20059;-73
2022/01/13 02:17:29;;;;;;;2.17;1.10;;;7.90;83.00;;;;;;4899827;29;20055;-73
2022/01/13 02:19:57;;;;;;;3.00;1.15;;;7.80;83.50;;;;;;4898185;29;20048;-74
2022/01/13 02:22:27;;;;;;;1.83;1.10;;;7.80;83.80;;;;;;4884798;29;20044;-74
2022/01/13 02:24:55;;;;;;;1.77;0.95;;;7.80;84.20;;;;;;4904204;29;20059;-74
2022/01/13 02:27:24;;;;;;;1.70;0.95;;;7.70;84.40;;;;;;4900366;29;20135;-74
2022/01/13 02:29:52;;;;;;;1.95;1.13;;;7.70;84.60;;;;;;4902293;29;20521;-74
2022/01/13 02:32:20;;;;;;;1.67;0.90;;;7.70;84.90;;;;;;4900132;29;20099;-74
2022/01/13 02:34:49;;;;;;;1.90;1.00;;;7.70;84.80;;;;;;4918204;29;20043;-74
2022/01/13 02:37:17;;;;;;;3.63;1.35;;;7.80;85.00;;;;;;4921819;29;20066;-74
2022/01/13 02:39:46;;;;;;;3.33;1.42;;;7.80;85.00;;;;;;4916603;29;20055;-74
2022/01/13 02:42:15;;;;;;;1.88;1.10;;;7.80;85.20;;;;;;4900216;29;20084;-74
2022/01/13 02:45:00;;;;;;;2.67;1.08;;;7.80;84.90;;;;;;4914666;29;20044;-74
2022/01/13 02:50:11;;;;;;;3.67;1.30;;;7.80;85.30;;;;;;4916868;29;20210;-74
2022/01/13 02:52:40;;;;;;;2.50;1.33;;;7.80;85.80;;;;;;4920928;29;20377;-74
2022/01/13 02:55:11;;;;;;;2.17;1.30;;;7.80;85.80;;;;;;4917148;29;20063;-73
2022/01/13 02:57:39;;;;;;;2.28;1.20;;;7.80;85.80;;;;;;4901189;29;20054;-74
2022/01/13 03:00:09;;;;;;;2.53;1.17;;;7.80;85.70;;;;;;4918461;29;20040;-74
2022/01/13 03:02:37;;;;;;;1.90;1.10;;;7.80;85.70;;;;;;4901615;29;20067;-74
2022/01/13 03:05:11;;;;;;;4.30;1.65;;;7.80;85.60;;;;;;4888916;29;20051;-73
2022/01/13 03:07:40;;;;;;;3.80;1.55;;;7.80;85.70;;;;;;4897327;29;20510;-74
2022/01/13 03:10:11;;;;;;;3.40;1.30;;;7.80;85.80;;;;;;4920567;29;20049;-74
2022/01/13 03:12:43;;;;;;;4.28;1.55;;;7.80;85.80;;;;;;4897020;29;20060;-74
2022/01/13 03:15:12;;;;;;;2.60;1.42;;;7.80;86.00;;;;;;4921607;29;20062;-74
2022/01/13 03:17:40;;;;;;;2.72;1.10;;;7.80;86.20;;;;;;4915712;29;20123;-74
2022/01/13 03:20:09;;;;;;;3.10;1.33;;;7.70;86.10;;;;;;4914063;29;20059;-74
2022/01/13 03:22:38;;;;;;;3.33;1.50;;;7.80;85.90;;;;;;4900600;29;20036;-74
2022/01/13 03:25:06;;;;;;;3.38;1.30;;;7.80;85.90;;;;;;4905674;29;20074;-74
2022/01/13 03:27:37;;;;;;;3.28;1.27;;;7.80;86.40;;;;;;4894230;29;20079;-74
2022/01/13 03:30:06;;;;;;;2.83;1.50;;;7.70;86.70;;;;;;4920809;29;20052;-74
2022/01/13 03:32:35;;;;;;;2.22;1.38;;;7.70;87.10;;;;;;4911631;29;20040;-74
2022/01/13 03:35:04;;;;;;;3.05;1.55;;;7.60;87.40;;;;;;4912977;29;20031;-74
2022/01/13 03:37:33;;;;;;;3.13;1.50;;;7.50;88.00;;;;;;4892861;29;20060;-74
2022/01/13 03:40:01;;;;;;;2.83;1.42;;;7.50;88.30;;;;;;4899981;29;20040;-74
2022/01/13 03:42:29;;;;;;;3.75;1.55;;;7.50;88.10;;;;;;4918365;29;20066;-74
2022/01/13 03:45:00;;;;;;;3.50;1.42;;;7.50;87.60;;;;;;4898741;29;20047;-74
2022/01/13 03:47:28;;;;;;;3.65;1.48;;;7.50;87.80;;;;;;4913252;29;20059;-73
2022/01/13 03:49:56;;;;;;;2.85;1.17;;;7.50;87.50;;;;;;4913867;29;20044;-74
2022/01/13 03:52:57;;;;;;;2.58;1.20;;;7.50;86.70;;;;;;4899099;29;20526;-74
2022/01/13 03:56:32;;;;;;;3.58;1.17;;;7.50;87.10;;;;;;4919220;29;20044;-74
2022/01/13 03:59:37;;;;;;;4.10;1.55;;;7.50;86.50;;;;;;4867418;29;20067;-74
2022/01/13 04:02:08;;;;;;;3.40;1.75;;;7.50;86.40;;;;;;4912143;29;20043;-74
2022/01/13 04:04:38;;;;;;;1.55;1.02;;;7.50;87.50;;;;;;4915808;29;20059;-73
2022/01/13 04:07:12;;;;;;;3.05;1.20;;;7.40;88.00;;;;;;4910851;29;20059;-74
2022/01/13 04:10:26;;;;;;;3.65;1.63;;;7.40;88.70;;;;;;4910838;29;20040;-73
2022/01/13 04:12:55;;;;;;;2.17;1.17;;;7.30;88.70;;;;;;4895132;29;20425;-74
2022/01/13 04:15:25;;;;;;;3.97;1.65;;;7.30;89.30;;;;;;4918795;29;20051;-74
2022/01/13 04:17:55;;;;;;;3.00;1.45;;;7.20;87.60;;;;;;4915775;29;20063;-74
2022/01/13 04:20:23;;;;;;;1.88;1.13;;;7.20;88.60;;;;;;4914209;29;20036;-73
2022/01/13 04:22:51;;;;;;;2.50;1.20;;;7.20;88.90;;;;;;4917069;29;20052;-74
2022/01/13 04:25:22;;;;;;;2.17;1.20;;;7.20;86.80;;;;;;4883891;29;20044;-75
2022/01/13 04:27:53;;;;;;;3.30;1.15;;;7.40;85.40;;;;;;4918091;29;20127;-74
2022/01/13 04:30:33;;;;;;;1.85;1.13;;;7.50;85.00;;;;;;4898006;29;20052;-74
2022/01/13 04:33:04;;;;;;;2.72;1.45;;;7.50;85.10;;;;;;4916776;29;20498;-74
2022/01/13 04:35:32;;;;;;;2.50;1.30;;;7.50;85.30;;;;;;4894968;29;20068;-74
2022/01/13 04:38:00;;;;;;;2.92;1.38;;;7.50;85.60;;;;;;4904821;29;20050;-73
2022/01/13 04:40:28;;;;;;;1.50;1.23;;;7.40;85.50;;;;;;4897052;29;20437;-74
2022/01/13 04:42:56;;;;;;;3.38;1.40;;;7.50;85.10;;;;;;4884796;29;20718;-74
2022/01/13 04:45:25;;;;;;;2.88;1.35;;;7.50;84.60;;;;;;4898851;29;20048;-74
2022/01/13 04:47:56;;;;;;;2.83;1.23;;;7.50;85.10;;;;;;4914213;29;20135;-75
2022/01/13 04:50:27;;;;;;;2.58;1.23;;;7.50;85.60;;;;;;4897715;29;20407;-74
2022/01/13 04:52:55;;;;;;;4.15;1.45;;;7.50;85.90;;;;;;4911593;29;20126;-74
2022/01/13 04:55:29;;;;;;;4.22;1.60;;;7.50;86.00;;;;;;4899880;29;20040;-75
2022/01/13 04:57:59;;;;;;;3.55;1.52;;;7.50;85.90;;;;;;4897951;29;20064;-74
2022/01/13 05:00:29;;;;;;;2.15;1.23;;;7.50;85.90;;;;;;4900629;29;20067;-74
2022/01/13 05:02:57;;;;;;;3.35;1.80;;;7.50;85.80;;;;;;4893987;29;20483;-74
2022/01/13 05:05:27;;;;;;;2.30;1.40;;;7.60;85.60;;;;;;4916597;29;20048;-74
2022/01/13 05:07:55;;;;;;;3.30;1.50;;;7.60;85.50;;;;;;4897702;29;20048;-74
2022/01/13 05:10:23;;;;;;;2.65;1.40;;;7.60;84.80;;;;;;4920947;29;20050;-74
2022/01/13 05:12:57;;;;;;;2.88;1.23;;;7.60;85.50;;;;;;4905078;29;20067;-75
2022/01/13 05:15:27;;;;;;;2.60;1.13;;;7.60;85.90;;;;;;4899723;29;20430;-74
2022/01/13 05:18:14;;;;;;;2.55;1.52;;;7.50;86.10;;;;;;4901115;29;20499;-74
2022/01/13 05:21:04;;;;;;;3.20;1.30;;;7.50;86.00;;;;;;4917459;29;20060;-74
2022/01/13 05:23:32;;;;;;;3.60;1.50;;;7.50;86.60;;;;;;4914777;29;20569;-75
2022/01/13 05:26:01;;;;;;;3.90;1.45;;;7.50;86.40;;;;;;4920262;29;20589;-74
2022/01/13 05:28:29;;;;;;;3.47;1.63;;;7.50;86.80;;;;;;4911974;29;20050;-75
2022/01/13 05:30:57;;;;;;;3.88;1.70;;;7.50;87.10;;;;;;4897525;29;20043;-74
2022/01/13 05:33:25;;;;;;;3.10;1.30;;;7.40;87.50;;;;;;4918989;29;20047;-73
2022/01/13 05:35:55;;;;;;;3.83;1.20;;;7.40;88.10;;;;;;4907175;29;20040;-74
2022/01/13 05:38:23;;;;;;;2.85;1.50;;;7.40;87.60;;;;;;4905651;29;20480;-74
2022/01/13 05:40:53;;;;;;;2.47;1.48;;;7.40;87.60;;;;;;4906645;29;20136;-74
2022/01/13 05:43:22;;;;;;;4.95;1.70;;;7.40;88.20;;;;;;4920427;29;20106;-74
2022/01/13 05:45:50;;;;;;;2.55;1.50;;;7.40;87.10;;;;;;4904368;29;20051;-73
2022/01/13 05:48:18;;;;;;;4.47;1.50;;;7.40;87.10;;;;;;4918806;29;20050;-75
2022/01/13 05:50:46;;;;;;;2.92;1.20;;;7.40;87.00;;;;;;4915358;29;20042;-74
2022/01/13 05:53:16;;;;;;;2.33;1.30;;;7.40;86.70;;;;;;4919463;29;20123;-74
2022/01/13 05:55:44;;;;;;;2.35;1.30;;;7.50;84.90;;;;;;4918509;29;20430;-74
2022/01/13 05:58:12;;;;;;;4.30;1.70;;;7.60;83.70;;;;;;4917284;29;20257;-74
2022/01/13 06:00:40;;;;;;;3.10;1.42;;;7.70;83.50;;;;;;4922508;29;20430;-74
2022/01/13 06:03:08;;;;;;;3.55;1.77;;;7.70;83.20;;;;;;4903737;29;20044;-75
2022/01/13 06:05:37;;;;;;;1.90;1.05;;;7.70;83.30;;;;;;4922434;29;20138;-75
2022/01/13 06:08:05;;;;;;;2.95;1.20;;;7.70;82.70;;;;;;4902692;29;20050;-74
2022/01/13 06:10:37;;;;;;;3.05;1.50;;;7.70;82.50;;;;;;4904015;29;20545;-74
2022/01/13 06:13:05;;;;;;;2.83;1.20;;;7.70;83.30;;;;;;4918837;29;20052;-74
2022/01/13 06:15:35;;;;;;;2.72;1.40;;;7.70;83.00;;;;;;4912260;29;20070;-74
2022/01/13 06:18:04;;;;;;;2.20;1.25;;;7.60;83.60;;;;;;4916624;29;20047;-74
2022/01/13 06:20:32;;;;;;;3.65;1.25;;;7.60;83.80;;;;;;4902800;29;20079;-74
2022/01/13 06:23:02;;;;;;;2.08;1.27;;;7.60;83.90;;;;;;4917804;29;20043;-74
2022/01/13 06:25:30;;;;;;;3.78;1.30;;;7.60;83.50;;;;;;4904670;29;20052;-75
2022/01/13 06:27:59;;;;;;;2.83;1.30;;;7.60;82.20;;;;;;4898803;29;20047;-73
2022/01/13 06:30:41;;;;;;;5.53;1.70;;;7.60;81.00;;;;;;4921663;29;20067;-74
2022/01/13 06:33:09;;;;;;;3.92;1.48;;;7.70;80.30;;;;;;4922870;29;20155;-74
2022/01/13 06:35:37;;;;;;;3.85;1.67;;;7.70;80.00;;;;;;4900964;29;20099;-73
2022/01/13 06:38:05;;;;;;;2.50;1.35;;;7.70;80.00;;;;;;4898573;29;20040;-73
2022/01/13 06:40:34;;;;;;;2.78;1.88;;;7.80;80.10;;;;;;4901326;29;21034;-73
2022/01/13 06:43:03;;;;;;;4.55;1.70;;;7.80;80.80;;;;;;4903346;29;20048;-74
2022/01/13 06:45:31;;;;;;;3.67;1.40;;;7.70;81.00;;;;;;4900703;29;20114;-74
2022/01/13 06:47:59;;;;;;;2.90;1.52;;;7.70;81.30;;;;;;4897421;29;20051;-73
2022/01/13 06:50:28;;;;;;;3.25;1.63;;;7.70;81.90;;;;;;4918864;29;20043;-73
2022/01/13 06:52:56;;;;;;;3.58;1.80;;;7.70;81.90;;;;;;4900050;29;20398;-73
2022/01/13 06:55:24;;;;;;;2.42;1.50;;;7.70;81.60;;;;;;4912667;29;20043;-74
2022/01/13 06:57:53;;;;;;;4.45;1.30;;;7.70;82.10;;;;;;4913904;29;20052;-74
2022/01/13 07:00:23;;;;;;;2.45;1.52;;;7.80;82.10;;;;;;4902743;29;20545;-75
2022/01/13 07:02:55;;;;;;;2.53;1.75;;;7.80;80.20;;;;;;4902110;29;20486;-73
2022/01/13 07:05:23;;;;;;;4.95;1.80;;;7.80;79.80;;;;;;4897674;29;20048;-73
2022/01/13 07:07:51;;;;;;;2.45;1.40;;;7.90;79.30;;;;;;4912513;29;20054;-73
2022/01/13 07:10:20;;;;;;;2.70;1.60;;;7.90;79.60;;;;;;4922574;29;20055;-74
2022/01/13 07:12:48;;;;;;;3.60;1.50;;;7.90;79.20;;;;;;4918317;29;20052;-73
2022/01/13 07:15:16;;;;;;;3.28;1.65;;;8.00;78.70;;;;;;4915581;29;20055;-73
2022/01/13 07:17:46;;;;;;;3.20;1.60;;;8.00;78.30;;;;;;4917019;29;20589;-73
2022/01/13 07:20:15;;;;;;;3.08;1.80;;;8.00;78.20;;;;;;4915364;29;20112;-73
2022/01/13 07:22:43;;;;;;;3.95;2.10;;;8.00;78.00;;;;;;4895817;29;20707;-74
2022/01/13 07:25:11;;;;;;;2.80;1.73;;;8.00;78.00;;;;;;4901812;29;20627;-72
2022/01/13 07:27:40;;;;;;;3.25;2.05;;;8.00;78.60;;;;;;4898605;29;20039;-72
2022/01/13 07:30:10;;;;;;;3.10;1.98;;;8.00;78.50;;;;;;4920451;29;20498;-75
2022/01/13 07:32:38;;;;;;;3.17;2.00;;;8.00;78.60;;;;;;4915839;29;20039;-74
2022/01/13 07:35:10;;;;;;;4.82;2.00;;;8.00;78.00;;;;;;4919765;29;20126;-75
2022/01/13 07:37:39;;;;;;;3.33;1.85;;;8.00;78.40;;;;;;4913006;29;20089;-75
2022/01/13 07:40:13;;;;;;;4.22;2.35;;;8.00;79.30;;;;;;4911726;29;20052;-73
2022/01/13 07:42:42;;;;;;;6.15;3.30;;;8.00;79.10;;;;;;4909268;29;20134;-72
2022/01/13 07:45:11;;;;;;;4.57;1.95;;;8.00;79.20;;;;;;4920615;29;20040;-72
2022/01/13 07:47:39;;;;;;;3.30;2.00;;;8.00;79.30;;;;;;4914638;29;20047;-72
2022/01/13 07:50:13;;;;;;;7.53;2.58;;;8.00;79.20;;;;;;4916208;29;20117;-74
2022/01/13 07:52:41;;;;;;;3.35;2.15;;;8.00;79.50;;;;;;4912807;29;20051;-73
2022/01/13 07:55:11;;;;;;;3.30;1.67;;;8.00;79.80;;;;;;4918391;29;20047;-73
2022/01/13 07:57:39;;;;;;;3.03;1.73;;;8.10;79.80;;;;;;4912193;29;20039;-75
2022/01/13 08:00:10;;;;;;;4.30;1.98;;;8.10;79.10;;;;;;4881391;29;20050;-75
2022/01/13 08:02:39;;;;;;;3.13;1.63;;;8.10;79.60;;;;;;4923556;29;20063;-76
2022/01/13 08:05:10;;;;;;;3.88;1.77;;;8.20;79.00;;;;;;4895653;29;20052;-75
2022/01/13 08:07:38;;;;;;;2.83;1.80;;;8.20;78.00;;;;;;4883098;29;20056;-75
2022/01/13 08:10:07;;;;;;;2.90;1.58;;;8.30;78.10;;;;;;4887463;29;20035;-76
2022/01/13 08:12:36;;;;;;;4.05;1.85;;;8.30;79.00;;;;;;4902394;29;20055;-75
2022/01/13 08:15:07;;;;;;;4.28;2.10;;;8.40;78.60;;;;;;4913185;29;20052;-75
2022/01/13 08:20:23;;;;;;;3.30;1.90;;;8.50;77.60;;;;;;4914317;29;20050;-72
2022/01/13 08:22:52;;;;;;;4.18;1.75;;;8.50;78.00;;;;;;4900735;29;20159;-75
2022/01/13 08:25:21;;;;;;;4.75;1.85;;;8.50;78.50;;;;;;4893249;29;20049;-75
2022/01/13 08:27:50;;;;;;;3.97;2.03;;;8.50;78.40;;;;;;4896920;29;20055;-75
2022/01/13 08:30:18;;;;;;;5.72;2.00;;;8.50;78.20;;;;;;4884780;29;20510;-74
2022/01/13 08:32:46;;;;;;;3.05;1.75;;;8.60;78.10;;;;;;4902463;29;20347;-75
2022/01/13 08:35:15;;;;;;;3.53;2.22;;;8.60;77.90;;;;;;4916865;29;20042;-75
2022/01/13 08:37:44;;;;;;;4.85;1.90;;;8.70;77.70;;;;;;4900522;29;20052;-75
2022/01/13 08:40:14;;;;;;;4.05;1.40;;;8.70;77.90;;;;;;4899361;29;20059;-75
2022/01/13 08:42:43;;;;;;;2.58;1.65;;;8.80;78.20;;;;;;4921029;29;20444;-75
2022/01/13 08:45:13;;;;;;;3.08;1.80;;;8.80;77.70;;;;;;4898774;29;20048;-75
2022/01/13 08:47:41;;;;;;;3.13;1.60;;;8.80;77.90;;;;;;4931226;29;20506;-75
2022/01/13 08:50:10;;;;;;;2.53;1.83;;;8.90;77.90;;;;;;4898552;29;20051;-75
2022/01/13 08:52:39;;;;;;;3.53;1.83;;;9.00;77.40;;;;;;4901159;29;20079;-72
2022/01/13 08:55:09;;;;;;;2.08;1.33;;;9.00;77.90;;;;;;4916336;29;20493;-73
2022/01/13 08:57:38;;;;;;;5.28;1.55;;;9.10;77.80;;;;;;4918081;29;20068;-72
2022/01/13 09:00:07;;;;;;;3.15;1.73;;;9.20;77.70;;;;;;4903059;29;20044;-75
2022/01/13 09:02:41;;;;;;;4.15;1.90;;;9.30;77.70;;;;;;4919224;29;20162;-75
2022/01/13 09:05:11;;;;;;;3.08;1.67;;;9.40;77.40;;;;;;4924407;29;20051;-75
2022/01/13 09:07:40;;;;;;;2.92;1.60;;;9.40;77.30;;;;;;4904516;29;20506;-75
2022/01/13 09:10:11;;;;;;;3.25;1.70;;;9.60;77.00;;;;;;4907499;29;20039;-75
2022/01/13 09:12:40;;;;;;;4.18;1.75;;;9.70;77.00;;;;;;4916959;29;20086;-75
2022/01/13 09:15:17;;;;;;;3.72;1.50;;;9.70;77.40;;;;;;4900594;29;20075;-75
2022/01/13 09:17:51;;;;;;;4.05;1.70;;;9.80;77.30;;;;;;4915602;29;20052;-76
2022/01/13 09:20:19;;;;;;;2.50;1.52;;;9.90;77.40;;;;;;4904049;29;20056;-76
2022/01/13 09:22:48;;;;;;;4.82;2.67;;;9.90;77.00;;;;;;4921804;29;20450;-75
2022/01/13 09:25:17;;;;;;;9.82;5.65;;;10.00;76.80;;;;;;4901838;29;20055;-75
2022/01/13 09:27:46;;;;;;;6.82;3.80;;;10.10;76.40;;;;;;4900673;29;20125;-76
2022/01/13 09:30:15;;;;;;;6.63;4.18;;;10.20;76.90;;;;;;4903507;29;20502;-72
2022/01/13 09:32:44;;;;;;;4.32;3.10;;;10.20;77.50;;;;;;4914263;29;20048;-73
2022/01/13 09:35:13;;;;;;;4.38;2.42;;;10.20;77.70;;;;;;4917769;29;20558;-73
2022/01/13 09:37:41;;;;;;;3.90;1.95;;;10.20;77.50;;;;;;4920868;29;20561;-72
2022/01/13 09:40:11;;;;;;;2.67;1.52;;;10.20;77.10;;;;;;4921789;29;20056;-72
2022/01/13 09:42:43;;;;;;;2.40;1.55;;;10.30;77.10;;;;;;4929330;28;20040;-73
2022/01/13 09:45:13;;;;;;;2.28;1.30;;;10.40;76.70;;;;;;4919542;29;20052;-77
2022/01/13 09:47:43;;;;;;;2.00;1.30;;;10.50;76.10;;;;;;4913719;29;20131;-75
2022/01/13 09:50:14;;;;;;;2.17;1.13;;;10.50;75.70;;;;;;4917796;29;20039;-76
2022/01/13 09:52:44;;;;;;;2.55;1.40;;;10.50;75.00;;;;;;4922674;29;20368;-75
2022/01/13 09:55:14;;;;;;;2.05;1.13;;;10.60;75.10;;;;;;4917068;29;20039;-78
2022/01/13 09:57:46;;;;;;;3.38;1.30;;;10.70;75.30;;;;;;4913741;29;20490;-76
2022/01/13 10:00:18;;;;;;;2.00;1.20;;;10.70;75.00;;;;;;4925759;29;20399;-75
2022/01/13 10:02:46;;;;;;;2.13;1.27;;;10.80;75.40;;;;;;4907121;29;20058;-75
2022/01/13 10:05:17;;;;;;;3.25;1.05;;;10.80;75.50;;;;;;4906799;29;20039;-75
2022/01/13 10:07:47;;;;;;;1.95;1.23;;;10.80;75.70;;;;;;4919225;29;20044;-75
2022/01/13 10:10:27;;;;;;;2.65;1.20;;;10.90;75.90;;;;;;4902483;29;20457;-75
2022/01/13 10:13:08;;;;;;;2.65;1.30;;;11.00;75.80;;;;;;4910553;29;20056;-73
2022/01/13 10:18:43;;;;;;;2.35;1.30;;;11.00;76.40;;;;;;4896565;29;20147;-73
2022/01/13 10:21:14;;;;;;;2.58;1.50;;;11.00;76.80;;;;;;4899731;29;20044;-73
2022/01/13 10:24:09;;;;;;;2.65;1.33;;;11.10;77.00;;;;;;4898797;29;20469;-73
2022/01/13 10:26:40;;;;;;;3.45;1.52;;;11.20;77.00;;;;;;4895893;29;20080;-74
2022/01/13 10:29:14;;;;;;;3.17;1.23;;;11.20;76.90;;;;;;4898663;29;20051;-73
2022/01/13 10:31:47;;;;;;;2.80;1.40;;;11.20;77.10;;;;;;4882934;29;20499;-73
2022/01/13 10:34:21;;;;;;;1.90;0.98;;;11.20;77.30;;;;;;4901962;29;20401;-73
2022/01/13 10:37:01;;;;;;;2.53;1.60;;;11.30;77.40;;;;;;4872366;29;20052;-73
2022/01/13 10:40:01;;;;;;;3.25;1.40;;;11.30;77.60;;;;;;4900070;29;20044;-72
2022/01/13 10:45:14;;;;;;;3.63;1.63;;;11.40;78.30;;;;;;4821799;29;20062;-73
2022/01/13 10:47:50;;;;;;;2.45;1.20;;;11.50;78.50;;;;;;4813252;29;20054;-75
2022/01/13 10:50:20;;;;;;;3.35;1.10;;;11.60;78.00;;;;;;4824122;29;20140;-76
2022/01/13 10:52:51;;;;;;;2.03;1.10;;;11.60;77.80;;;;;;4812822;29;20052;-75
2022/01/13 10:55:21;;;;;;;3.15;1.25;;;11.60;77.70;;;;;;4807792;29;20104;-75
2022/01/13 10:58:11;;;;;;;2.65;1.40;;;11.70;77.80;;;;;;4824512;29;20190;-72
2022/01/13 11:00:42;;;;;;;3.30;1.10;;;11.80;78.30;;;;;;4822810;29;20557;-72
2022/01/13 11:03:13;;;;;;;2.35;1.25;;;11.80;78.30;;;;;;4818632;29;20545;-72
2022/01/13 11:05:45;;;;;;;2.78;1.30;;;11.80;78.60;;;;;;4824200;29;20532;-73
2022/01/13 11:08:21;;;;;;;3.25;1.63;;;11.80;78.50;;;;;;4820780;29;20050;-73
2022/01/13 11:10:52;;;;;;;2.15;1.40;;;11.90;78.90;;;;;;4824116;29;20066;-73
2022/01/13 11:13:21;;;;;;;3.75;1.67;;;11.90;79.00;;;;;;4835081;29;20065;-73
2022/01/13 11:15:55;;;;;;;4.20;1.58;;;11.90;78.20;;;;;;4841611;29;20055;-73
2022/01/13 11:18:27;;;;;;;3.42;1.30;;;11.90;78.50;;;;;;4918324;29;20040;-73
2022/01/13 11:20:56;;;;;;;2.13;1.38;;;12.00;78.50;;;;;;4918386;29;20047;-73
2022/01/13 11:23:25;;;;;;;2.78;1.30;;;12.10;78.60;;;;;;4911335;29;20044;-73
2022/01/13 11:25:55;;;;;;;2.20;1.38;;;12.00;77.90;;;;;;4917384;29;20047;-72
2022/01/13 11:28:24;;;;;;;2.35;1.20;;;12.10;78.40;;;;;;4894973;29;20036;-72
2022/01/13 11:30:54;;;;;;;4.05;1.45;;;12.20;78.30;;;;;;4901054;29;20079;-73
2022/01/13 11:33:23;;;;;;;1.95;1.20;;;12.30;78.50;;;;;;4917814;29;20044;-72
2022/01/13 11:35:58;;;;;;;3.88;1.30;;;12.40;78.70;;;;;;4917310;29;20044;-72
2022/01/13 11:38:29;;;;;;;1.48;1.00;;;12.40;78.20;;;;;;4911700;29;20577;-74
2022/01/13 11:41:00;;;;;;;1.88;1.20;;;12.40;78.00;;;;;;4897486;29;20443;-73
2022/01/13 11:43:32;;;;;;;2.78;1.27;;;12.50;78.20;;;;;;4916702;29;20067;-73
2022/01/13 11:46:19;;;;;;;2.83;1.38;;;12.50;78.00;;;;;;4911978;29;20063;-72
2022/01/13 11:49:15;;;;;;;1.83;1.17;;;12.70;78.40;;;;;;4895307;29;20056;-73
2022/01/13 11:51:46;;;;;;;3.38;1.75;;;12.70;77.90;;;;;;4914672;29;20450;-73
2022/01/13 11:54:31;;;;;;;2.33;1.13;;;12.70;77.60;;;;;;4918074;29;20146;-73
2022/01/13 11:57:21;;;;;;;2.30;1.52;;;12.70;78.30;;;;;;4899636;29;20167;-72
2022/01/13 12:00:31;;;;;;;3.17;1.40;;;12.80;77.60;;;;;;4912356;29;20418;-72
2022/01/13 12:03:20;;;;;;;2.78;1.05;;;12.80;77.60;;;;;;4901336;29;20048;-73
2022/01/13 12:05:48;;;;;;;3.20;1.30;;;12.90;77.20;;;;;;4914415;29;20039;-74
2022/01/13 12:08:35;;;;;;;3.35;1.40;;;12.90;77.20;;;;;;4913556;29;20449;-71
2022/01/13 12:11:03;;;;;;;2.20;1.60;;;12.90;77.10;;;;;;4901299;29;20514;-70
2022/01/13 12:13:38;;;;;;;1.80;1.00;;;12.90;76.80;;;;;;4899899;29;20395;-71
2022/01/13 12:16:08;;;;;;;2.45;1.25;;;13.00;77.40;;;;;;4880131;29;20048;-71
2022/01/13 12:19:16;;;;;;;1.38;1.00;;;13.10;76.80;;;;;;4898623;29;20558;-71
2022/01/13 12:22:00;;;;;;;2.45;1.33;;;13.10;76.80;;;;;;4895204;29;20503;-71
2022/01/13 12:24:49;;;;;;;3.05;1.60;;;13.10;76.20;;;;;;4891120;29;20057;-71
2022/01/13 12:27:18;;;;;;;3.90;1.40;;;13.20;76.70;;;;;;4895438;29;20507;-71
2022/01/13 12:29:49;;;;;;;3.22;1.35;;;13.20;76.40;;;;;;4882633;29;20426;-72
2022/01/13 12:32:35;;;;;;;2.97;1.52;;;13.20;76.20;;;;;;4883837;29;20147;-71
2022/01/13 12:35:07;;;;;;;2.20;1.70;;;13.30;76.90;;;;;;4896044;29;20416;-71
2022/01/13 12:37:39;;;;;;;4.10;1.50;;;13.40;77.20;;;;;;4878116;29;20056;-71
2022/01/13 12:40:17;;;;;;;2.45;1.48;;;13.50;76.60;;;;;;4892772;29;20067;-72
2022/01/13 12:42:52;;;;;;;2.70;1.52;;;13.40;76.30;;;;;;4880022;29;20504;-71
2022/01/13 12:45:33;;;;;;;2.47;1.65;;;13.40;76.50;;;;;;4894819;29;20041;-72
2022/01/13 12:48:05;;;;;;;2.78;1.67;;;13.50;76.20;;;;;;4902827;29;20068;-72
2022/01/13 12:50:37;;;;;;;4.60;2.08;;;13.40;75.50;;;;;;4874066;29;20131;-72
2022/01/13 12:53:15;;;;;;;2.10;1.45;;;13.40;75.50;;;;;;4902371;29;20044;-71
2022/01/13 12:55:53;;;;;;;3.15;1.58;;;13.30;75.10;;;;;;4873855;29;20143;-71
2022/01/13 12:58:23;;;;;;;3.13;1.60;;;13.30;75.30;;;;;;4896073;29;20439;-71
2022/01/13 13:01:02;;;;;;;2.97;1.40;;;13.30;75.20;;;;;;4895879;29;20381;-71
2022/01/13 13:03:30;;;;;;;3.47;1.45;;;13.40;75.30;;;;;;4884210;29;20601;-71
2022/01/13 13:06:07;;;;;;;2.17;1.48;;;13.50;75.80;;;;;;4897543;29;20040;-71
2022/01/13 13:08:35;;;;;;;3.85;1.30;;;13.50;75.40;;;;;;4892643;29;20140;-71
2022/01/13 13:11:06;;;;;;;2.92;1.55;;;13.50;75.40;;;;;;4896204;29;20051;-71
2022/01/13 13:13:41;;;;;;;2.78;1.50;;;13.50;75.80;;;;;;4898331;29;20166;-71
2022/01/13 13:16:11;;;;;;;4.00;1.52;;;13.40;75.10;;;;;;4903905;29;20128;-72
2022/01/13 13:18:39;;;;;;;1.88;1.38;;;13.40;75.60;;;;;;4892472;29;20044;-72
2022/01/13 13:21:09;;;;;;;2.30;1.50;;;13.40;75.30;;;;;;4914733;29;20506;-72
2022/01/13 13:23:42;;;;;;;3.70;1.70;;;13.40;75.50;;;;;;4917023;29;20051;-72
2022/01/13 13:26:14;;;;;;;2.20;1.63;;;13.30;75.10;;;;;;4920174;29;20055;-71
2022/01/13 13:28:43;;;;;;;2.33;1.50;;;13.30;75.50;;;;;;4902403;29;20047;-72
2022/01/13 13:31:12;;;;;;;2.50;1.58;;;13.40;75.70;;;;;;4914728;29;20080;-71
2022/01/13 13:33:50;;;;;;;2.45;1.52;;;13.30;75.00;;;;;;4903878;29;20048;-72
2022/01/13 13:36:21;;;;;;;4.72;1.52;;;13.30;74.90;;;;;;4901057;29;20130;-73
2022/01/13 13:38:55;;;;;;;2.20;1.40;;;13.20;74.20;;;;;;4921936;29;20043;-73
2022/01/13 13:41:25;;;;;;;2.35;1.50;;;13.20;74.20;;;;;;4896135;29;20098;-72
2022/01/13 13:44:13;;;;;;;2.20;1.33;;;13.20;74.40;;;;;;4897850;29;20040;-72
2022/01/13 13:46:47;;;;;;;;;;;13.10;74.00;;;;;;4919672;29;20099;-72